sensor_id;sensor_type;location;lat;lon;timestamp;P1;durP1;ratioP1;P2;durP2;ratioP2
11222;SDS011;5668;52.012;8.724;2023-08-06T00:02:17;2.50;;;2.30;;
11222;SDS011;5668;52.012;8.724;2023-08-06T00:04:44;3.20;;;2.42;;
11222;SDS011;5668;52.012;8.724;2023-08-06T00:07:12;4.00;;;2.20;;
11222;SDS011;5668;52.012;8.724;2023-08-06T00:09:40;2.60;;;2.20;;
11222;SDS011;5668;52.012;8.724;2023-08-06T00:12:07;2.42;;;2.22;;
11222;SDS011;5668;52.012;8.724;2023-08-06T00:14:34;3.45;;;2.20;;
11222;SDS011;5668;52.012;8.724;2023-08-06T00:17:02;2.53;;;2.30;;
11222;SDS011;5668;52.012;8.724;2023-08-06T00:19:30;2.30;;;2.10;;
11222;SDS011;5668;52.012;8.724;2023-08-06T00:21:57;2.63;;;2.42;;
11222;SDS011;5668;52.012;8.724;2023-08-06T00:24:24;4.00;;;2.40;;
11222;SDS011;5668;52.012;8.724;2023-08-06T00:26:53;3.25;;;2.53;;
11222;SDS011;5668;52.012;8.724;2023-08-06T00:29:20;2.97;;;2.30;;
11222;SDS011;5668;52.012;8.724;2023-08-06T00:31:47;2.40;;;2.20;;
11222;SDS011;5668;52.012;8.724;2023-08-06T00:34:15;3.05;;;2.22;;
11222;SDS011;5668;52.012;8.724;2023-08-06T00:36:42;3.38;;;2.33;;
11222;SDS011;5668;52.012;8.724;2023-08-06T00:39:09;2.95;;;2.15;;
11222;SDS011;5668;52.012;8.724;2023-08-06T00:41:36;2.88;;;2.22;;
11222;SDS011;5668;52.012;8.724;2023-08-06T00:44:05;2.55;;;2.35;;
11222;SDS011;5668;52.012;8.724;2023-08-06T00:46:32;2.53;;;2.15;;
11222;SDS011;5668;52.012;8.724;2023-08-06T00:49:00;4.20;;;2.50;;
11222;SDS011;5668;52.012;8.724;2023-08-06T00:51:28;3.25;;;2.47;;
11222;SDS011;5668;52.012;8.724;2023-08-06T00:53:55;2.95;;;2.65;;
11222;SDS011;5668;52.012;8.724;2023-08-06T00:56:22;3.22;;;2.47;;
11222;SDS011;5668;52.012;8.724;2023-08-06T00:58:51;2.90;;;2.60;;
11222;SDS011;5668;52.012;8.724;2023-08-06T01:01:20;2.60;;;2.40;;
11222;SDS011;5668;52.012;8.724;2023-08-06T01:03:47;2.97;;;2.60;;
11222;SDS011;5668;52.012;8.724;2023-08-06T01:06:15;4.00;;;3.00;;
11222;SDS011;5668;52.012;8.724;2023-08-06T01:08:58;3.83;;;2.85;;
11222;SDS011;5668;52.012;8.724;2023-08-06T01:11:33;4.72;;;3.00;;
11222;SDS011;5668;52.012;8.724;2023-08-06T01:14:12;4.07;;;3.22;;
11222;SDS011;5668;52.012;8.724;2023-08-06T01:16:46;4.38;;;2.80;;
11222;SDS011;5668;52.012;8.724;2023-08-06T01:19:16;4.32;;;2.90;;
11222;SDS011;5668;52.012;8.724;2023-08-06T01:21:44;3.13;;;2.83;;
11222;SDS011;5668;52.012;8.724;2023-08-06T01:24:12;3.50;;;3.20;;
11222;SDS011;5668;52.012;8.724;2023-08-06T01:26:42;4.78;;;3.25;;
11222;SDS011;5668;52.012;8.724;2023-08-06T01:29:12;3.22;;;2.92;;
11222;SDS011;5668;52.012;8.724;2023-08-06T01:31:48;5.03;;;3.10;;
11222;SDS011;5668;52.012;8.724;2023-08-06T01:34:17;3.58;;;3.10;;
11222;SDS011;5668;52.012;8.724;2023-08-06T01:36:49;3.47;;;3.03;;
11222;SDS011;5668;52.012;8.724;2023-08-06T01:39:17;3.38;;;2.97;;
11222;SDS011;5668;52.012;8.724;2023-08-06T01:41:46;4.93;;;3.30;;
11222;SDS011;5668;52.012;8.724;2023-08-06T01:44:13;3.38;;;3.08;;
11222;SDS011;5668;52.012;8.724;2023-08-06T01:46:40;3.78;;;3.47;;
11222;SDS011;5668;52.012;8.724;2023-08-06T01:49:07;3.35;;;3.05;;
11222;SDS011;5668;52.012;8.724;2023-08-06T01:51:35;3.92;;;3.50;;
11222;SDS011;5668;52.012;8.724;2023-08-06T01:54:03;3.33;;;3.03;;
11222;SDS011;5668;52.012;8.724;2023-08-06T01:56:30;3.45;;;3.08;;
11222;SDS011;5668;52.012;8.724;2023-08-06T01:58:58;3.95;;;3.30;;
11222;SDS011;5668;52.012;8.724;2023-08-06T02:01:25;3.70;;;3.20;;
11222;SDS011;5668;52.012;8.724;2023-08-06T02:03:52;3.33;;;3.03;;
11222;SDS011;5668;52.012;8.724;2023-08-06T02:06:20;3.90;;;3.42;;
11222;SDS011;5668;52.012;8.724;2023-08-06T02:08:47;3.35;;;3.15;;
11222;SDS011;5668;52.012;8.724;2023-08-06T02:11:15;3.78;;;3.47;;
11222;SDS011;5668;52.012;8.724;2023-08-06T02:13:43;3.20;;;3.00;;
11222;SDS011;5668;52.012;8.724;2023-08-06T02:16:11;3.83;;;2.80;;
11222;SDS011;5668;52.012;8.724;2023-08-06T02:18:38;3.40;;;3.10;;
11222;SDS011;5668;52.012;8.724;2023-08-06T02:21:06;3.80;;;3.05;;
11222;SDS011;5668;52.012;8.724;2023-08-06T02:23:33;5.38;;;3.50;;
11222;SDS011;5668;52.012;8.724;2023-08-06T02:26:00;3.47;;;3.20;;
11222;SDS011;5668;52.012;8.724;2023-08-06T02:28:30;3.92;;;3.58;;
11222;SDS011;5668;52.012;8.724;2023-08-06T02:30:57;3.40;;;3.10;;
11222;SDS011;5668;52.012;8.724;2023-08-06T02:33:25;4.05;;;3.30;;
11222;SDS011;5668;52.012;8.724;2023-08-06T02:35:58;5.43;;;3.28;;
11222;SDS011;5668;52.012;8.724;2023-08-06T02:38:26;3.25;;;3.03;;
11222;SDS011;5668;52.012;8.724;2023-08-06T02:40:53;5.47;;;3.65;;
11222;SDS011;5668;52.012;8.724;2023-08-06T02:43:20;3.42;;;3.15;;
11222;SDS011;5668;52.012;8.724;2023-08-06T02:45:49;3.53;;;3.22;;
11222;SDS011;5668;52.012;8.724;2023-08-06T02:48:16;3.67;;;3.10;;
11222;SDS011;5668;52.012;8.724;2023-08-06T02:50:44;3.28;;;3.08;;
11222;SDS011;5668;52.012;8.724;2023-08-06T02:53:11;3.22;;;2.88;;
11222;SDS011;5668;52.012;8.724;2023-08-06T02:55:38;3.45;;;3.15;;
11222;SDS011;5668;52.012;8.724;2023-08-06T02:58:12;3.42;;;3.13;;
11222;SDS011;5668;52.012;8.724;2023-08-06T03:00:40;3.50;;;3.08;;
11222;SDS011;5668;52.012;8.724;2023-08-06T03:03:09;3.17;;;2.85;;
11222;SDS011;5668;52.012;8.724;2023-08-06T03:05:36;3.15;;;2.83;;
11222;SDS011;5668;52.012;8.724;2023-08-06T03:08:03;3.30;;;2.90;;
11222;SDS011;5668;52.012;8.724;2023-08-06T03:10:31;2.85;;;2.65;;
11222;SDS011;5668;52.012;8.724;2023-08-06T03:12:58;4.28;;;2.70;;
11222;SDS011;5668;52.012;8.724;2023-08-06T03:15:25;4.30;;;2.78;;
11222;SDS011;5668;52.012;8.724;2023-08-06T03:17:55;2.90;;;2.60;;
11222;SDS011;5668;52.012;8.724;2023-08-06T03:20:24;3.08;;;2.78;;
11222;SDS011;5668;52.012;8.724;2023-08-06T03:22:51;4.38;;;2.80;;
11222;SDS011;5668;52.012;8.724;2023-08-06T03:25:19;3.88;;;2.88;;
11222;SDS011;5668;52.012;8.724;2023-08-06T03:27:46;5.70;;;2.67;;
11222;SDS011;5668;52.012;8.724;2023-08-06T03:30:13;5.13;;;2.72;;
11222;SDS011;5668;52.012;8.724;2023-08-06T03:32:40;4.30;;;3.15;;
11222;SDS011;5668;52.012;8.724;2023-08-06T03:35:07;5.63;;;3.08;;
11222;SDS011;5668;52.012;8.724;2023-08-06T03:37:36;3.10;;;2.53;;
11222;SDS011;5668;52.012;8.724;2023-08-06T03:40:04;3.80;;;2.72;;
11222;SDS011;5668;52.012;8.724;2023-08-06T03:42:33;3.88;;;2.70;;
11222;SDS011;5668;52.012;8.724;2023-08-06T03:45:00;2.75;;;2.55;;
11222;SDS011;5668;52.012;8.724;2023-08-06T03:47:28;3.08;;;2.60;;
11222;SDS011;5668;52.012;8.724;2023-08-06T03:49:55;2.95;;;2.65;;
11222;SDS011;5668;52.012;8.724;2023-08-06T03:52:22;2.90;;;2.60;;
11222;SDS011;5668;52.012;8.724;2023-08-06T03:54:51;2.70;;;2.50;;
11222;SDS011;5668;52.012;8.724;2023-08-06T03:57:18;4.70;;;3.00;;
11222;SDS011;5668;52.012;8.724;2023-08-06T03:59:45;2.60;;;2.40;;
11222;SDS011;5668;52.012;8.724;2023-08-06T04:02:12;3.78;;;2.72;;
11222;SDS011;5668;52.012;8.724;2023-08-06T04:04:39;2.75;;;2.28;;
11222;SDS011;5668;52.012;8.724;2023-08-06T04:07:07;4.15;;;2.88;;
11222;SDS011;5668;52.012;8.724;2023-08-06T04:09:34;3.95;;;2.50;;
11222;SDS011;5668;52.012;8.724;2023-08-06T04:12:23;2.58;;;2.38;;
11222;SDS011;5668;52.012;8.724;2023-08-06T04:14:50;2.70;;;2.50;;
11222;SDS011;5668;52.012;8.724;2023-08-06T04:17:18;2.78;;;2.50;;
11222;SDS011;5668;52.012;8.724;2023-08-06T04:19:46;3.00;;;2.42;;
11222;SDS011;5668;52.012;8.724;2023-08-06T04:22:14;3.60;;;2.60;;
11222;SDS011;5668;52.012;8.724;2023-08-06T04:24:41;2.78;;;2.53;;
11222;SDS011;5668;52.012;8.724;2023-08-06T04:27:10;3.08;;;2.63;;
11222;SDS011;5668;52.012;8.724;2023-08-06T04:29:39;3.15;;;2.80;;
11222;SDS011;5668;52.012;8.724;2023-08-06T04:32:07;2.72;;;2.50;;
11222;SDS011;5668;52.012;8.724;2023-08-06T04:34:35;5.60;;;2.90;;
11222;SDS011;5668;52.012;8.724;2023-08-06T04:37:03;3.00;;;2.70;;
11222;SDS011;5668;52.012;8.724;2023-08-06T04:39:30;3.08;;;2.88;;
11222;SDS011;5668;52.012;8.724;2023-08-06T04:41:57;3.75;;;3.00;;
11222;SDS011;5668;52.012;8.724;2023-08-06T04:44:26;3.50;;;2.83;;
11222;SDS011;5668;52.012;8.724;2023-08-06T04:46:53;3.42;;;2.95;;
11222;SDS011;5668;52.012;8.724;2023-08-06T04:49:20;3.28;;;2.97;;
11222;SDS011;5668;52.012;8.724;2023-08-06T04:51:48;3.17;;;2.95;;
11222;SDS011;5668;52.012;8.724;2023-08-06T04:54:15;4.67;;;3.53;;
11222;SDS011;5668;52.012;8.724;2023-08-06T04:56:42;3.33;;;3.13;;
11222;SDS011;5668;52.012;8.724;2023-08-06T04:59:09;3.25;;;2.92;;
11222;SDS011;5668;52.012;8.724;2023-08-06T05:01:38;4.05;;;3.30;;
11222;SDS011;5668;52.012;8.724;2023-08-06T05:04:05;3.85;;;3.22;;
11222;SDS011;5668;52.012;8.724;2023-08-06T05:06:32;3.15;;;2.72;;
11222;SDS011;5668;52.012;8.724;2023-08-06T05:08:59;3.97;;;2.88;;
11222;SDS011;5668;52.012;8.724;2023-08-06T05:11:27;5.40;;;2.90;;
11222;SDS011;5668;52.012;8.724;2023-08-06T05:13:54;3.60;;;3.15;;
11222;SDS011;5668;52.012;8.724;2023-08-06T05:16:21;3.60;;;3.30;;
11222;SDS011;5668;52.012;8.724;2023-08-06T05:18:50;3.87;;;3.50;;
11222;SDS011;5668;52.012;8.724;2023-08-06T05:21:17;3.60;;;3.30;;
11222;SDS011;5668;52.012;8.724;2023-08-06T05:23:44;3.95;;;3.65;;
11222;SDS011;5668;52.012;8.724;2023-08-06T05:26:11;3.90;;;3.60;;
11222;SDS011;5668;52.012;8.724;2023-08-06T05:28:39;3.80;;;3.50;;
11222;SDS011;5668;52.012;8.724;2023-08-06T05:31:07;4.47;;;3.47;;
11222;SDS011;5668;52.012;8.724;2023-08-06T05:33:34;4.53;;;3.40;;
11222;SDS011;5668;52.012;8.724;2023-08-06T05:36:03;3.60;;;3.30;;
11222;SDS011;5668;52.012;8.724;2023-08-06T05:38:30;3.92;;;3.53;;
11222;SDS011;5668;52.012;8.724;2023-08-06T05:40:57;4.47;;;3.30;;
11222;SDS011;5668;52.012;8.724;2023-08-06T05:43:25;3.80;;;3.50;;
11222;SDS011;5668;52.012;8.724;2023-08-06T05:45:52;5.85;;;3.92;;
11222;SDS011;5668;52.012;8.724;2023-08-06T05:48:19;4.20;;;3.90;;
11222;SDS011;5668;52.012;8.724;2023-08-06T05:50:47;4.47;;;4.10;;
11222;SDS011;5668;52.012;8.724;2023-08-06T05:53:16;5.07;;;4.60;;
11222;SDS011;5668;52.012;8.724;2023-08-06T05:55:43;4.88;;;4.43;;
11222;SDS011;5668;52.012;8.724;2023-08-06T05:58:11;4.80;;;4.40;;
11222;SDS011;5668;52.012;8.724;2023-08-06T06:00:38;5.20;;;4.70;;
11222;SDS011;5668;52.012;8.724;2023-08-06T06:03:05;6.57;;;5.40;;
11222;SDS011;5668;52.012;8.724;2023-08-06T06:05:32;5.35;;;4.95;;
11222;SDS011;5668;52.012;8.724;2023-08-06T06:07:59;5.57;;;4.75;;
11222;SDS011;5668;52.012;8.724;2023-08-06T06:10:28;5.78;;;4.88;;
11222;SDS011;5668;52.012;8.724;2023-08-06T06:12:55;5.53;;;5.13;;
11222;SDS011;5668;52.012;8.724;2023-08-06T06:15:23;4.75;;;4.25;;
11222;SDS011;5668;52.012;8.724;2023-08-06T06:17:50;5.88;;;4.90;;
11222;SDS011;5668;52.012;8.724;2023-08-06T06:20:20;4.97;;;4.57;;
11222;SDS011;5668;52.012;8.724;2023-08-06T06:22:48;4.88;;;4.47;;
11222;SDS011;5668;52.012;8.724;2023-08-06T06:25:15;4.90;;;4.30;;
11222;SDS011;5668;52.012;8.724;2023-08-06T06:27:43;4.50;;;4.10;;
11222;SDS011;5668;52.012;8.724;2023-08-06T06:30:11;5.68;;;4.82;;
11222;SDS011;5668;52.012;8.724;2023-08-06T06:32:39;8.18;;;5.00;;
11222;SDS011;5668;52.012;8.724;2023-08-06T06:35:07;5.85;;;5.15;;
11222;SDS011;5668;52.012;8.724;2023-08-06T06:37:34;5.75;;;5.05;;
11222;SDS011;5668;52.012;8.724;2023-08-06T06:40:02;6.30;;;5.70;;
11222;SDS011;5668;52.012;8.724;2023-08-06T06:42:30;5.25;;;4.75;;
11222;SDS011;5668;52.012;8.724;2023-08-06T06:44:59;5.20;;;4.72;;
11222;SDS011;5668;52.012;8.724;2023-08-06T06:47:26;5.00;;;4.60;;
11222;SDS011;5668;52.012;8.724;2023-08-06T06:49:53;4.47;;;4.07;;
11222;SDS011;5668;52.012;8.724;2023-08-06T06:52:20;5.30;;;4.72;;
11222;SDS011;5668;52.012;8.724;2023-08-06T06:54:48;5.95;;;4.60;;
11222;SDS011;5668;52.012;8.724;2023-08-06T06:57:15;4.75;;;4.28;;
11222;SDS011;5668;52.012;8.724;2023-08-06T06:59:42;4.55;;;4.15;;
11222;SDS011;5668;52.012;8.724;2023-08-06T07:02:11;4.63;;;4.22;;
11222;SDS011;5668;52.012;8.724;2023-08-06T07:04:38;5.70;;;4.03;;
11222;SDS011;5668;52.012;8.724;2023-08-06T07:07:05;4.55;;;4.03;;
11222;SDS011;5668;52.012;8.724;2023-08-06T07:09:32;3.88;;;3.47;;
11222;SDS011;5668;52.012;8.724;2023-08-06T07:12:00;3.90;;;3.50;;
11222;SDS011;5668;52.012;8.724;2023-08-06T07:14:28;4.03;;;3.72;;
11222;SDS011;5668;52.012;8.724;2023-08-06T07:16:55;4.10;;;3.80;;
11222;SDS011;5668;52.012;8.724;2023-08-06T07:19:24;4.05;;;3.75;;
11222;SDS011;5668;52.012;8.724;2023-08-06T07:21:51;3.75;;;3.45;;
11222;SDS011;5668;52.012;8.724;2023-08-06T07:24:18;3.40;;;3.10;;
11222;SDS011;5668;52.012;8.724;2023-08-06T07:26:45;4.18;;;3.60;;
11222;SDS011;5668;52.012;8.724;2023-08-06T07:29:13;3.55;;;3.30;;
11222;SDS011;5668;52.012;8.724;2023-08-06T07:31:44;4.50;;;3.30;;
11222;SDS011;5668;52.012;8.724;2023-08-06T07:34:11;4.28;;;3.80;;
11222;SDS011;5668;52.012;8.724;2023-08-06T07:36:40;3.42;;;3.20;;
11222;SDS011;5668;52.012;8.724;2023-08-06T07:39:10;3.20;;;2.92;;
11222;SDS011;5668;52.012;8.724;2023-08-06T07:41:37;4.00;;;3.60;;
11222;SDS011;5668;52.012;8.724;2023-08-06T07:44:05;4.03;;;3.60;;
11222;SDS011;5668;52.012;8.724;2023-08-06T07:46:32;3.30;;;3.00;;
11222;SDS011;5668;52.012;8.724;2023-08-06T07:48:59;3.63;;;3.30;;
11222;SDS011;5668;52.012;8.724;2023-08-06T07:51:27;3.20;;;2.90;;
11222;SDS011;5668;52.012;8.724;2023-08-06T07:53:56;4.57;;;2.80;;
11222;SDS011;5668;52.012;8.724;2023-08-06T07:56:23;3.30;;;3.00;;
11222;SDS011;5668;52.012;8.724;2023-08-06T07:58:50;3.47;;;3.17;;
11222;SDS011;5668;52.012;8.724;2023-08-06T08:01:17;3.70;;;3.25;;
11222;SDS011;5668;52.012;8.724;2023-08-06T08:03:44;3.25;;;2.95;;
11222;SDS011;5668;52.012;8.724;2023-08-06T08:06:12;3.10;;;2.70;;
11222;SDS011;5668;52.012;8.724;2023-08-06T08:08:39;3.63;;;2.70;;
11222;SDS011;5668;52.012;8.724;2023-08-06T08:11:07;3.03;;;2.72;;
11222;SDS011;5668;52.012;8.724;2023-08-06T08:13:34;3.72;;;2.45;;
11222;SDS011;5668;52.012;8.724;2023-08-06T08:16:02;2.80;;;2.60;;
11222;SDS011;5668;52.012;8.724;2023-08-06T08:18:29;3.17;;;2.95;;
11222;SDS011;5668;52.012;8.724;2023-08-06T08:20:57;3.55;;;2.90;;
11222;SDS011;5668;52.012;8.724;2023-08-06T08:23:24;3.80;;;3.13;;
11222;SDS011;5668;52.012;8.724;2023-08-06T08:25:51;2.63;;;2.42;;
11222;SDS011;5668;52.012;8.724;2023-08-06T08:28:21;3.40;;;2.60;;
11222;SDS011;5668;52.012;8.724;2023-08-06T08:30:48;3.53;;;2.28;;
11222;SDS011;5668;52.012;8.724;2023-08-06T08:33:15;2.55;;;2.35;;
11222;SDS011;5668;52.012;8.724;2023-08-06T08:35:42;2.55;;;2.35;;
11222;SDS011;5668;52.012;8.724;2023-08-06T08:38:11;2.90;;;2.40;;
11222;SDS011;5668;52.012;8.724;2023-08-06T08:40:40;3.25;;;2.80;;
11222;SDS011;5668;52.012;8.724;2023-08-06T08:43:11;2.55;;;2.35;;
11222;SDS011;5668;52.012;8.724;2023-08-06T08:45:41;7.53;;;2.95;;
11222;SDS011;5668;52.012;8.724;2023-08-06T08:48:10;2.33;;;2.13;;
11222;SDS011;5668;52.012;8.724;2023-08-06T08:50:39;3.05;;;2.40;;
11222;SDS011;5668;52.012;8.724;2023-08-06T08:53:07;2.95;;;2.40;;
11222;SDS011;5668;52.012;8.724;2023-08-06T08:55:37;2.88;;;2.67;;
11222;SDS011;5668;52.012;8.724;2023-08-06T08:58:05;2.60;;;2.40;;
11222;SDS011;5668;52.012;8.724;2023-08-06T09:00:32;3.08;;;2.70;;
11222;SDS011;5668;52.012;8.724;2023-08-06T09:03:02;4.05;;;2.85;;
11222;SDS011;5668;52.012;8.724;2023-08-06T09:05:33;2.75;;;2.55;;
11222;SDS011;5668;52.012;8.724;2023-08-06T09:08:02;3.47;;;2.70;;
11222;SDS011;5668;52.012;8.724;2023-08-06T09:10:30;2.50;;;2.28;;
11222;SDS011;5668;52.012;8.724;2023-08-06T09:12:57;3.47;;;2.53;;
11222;SDS011;5668;52.012;8.724;2023-08-06T09:15:26;2.95;;;2.70;;
11222;SDS011;5668;52.012;8.724;2023-08-06T09:17:54;3.53;;;2.33;;
11222;SDS011;5668;52.012;8.724;2023-08-06T09:20:23;2.72;;;2.50;;
11222;SDS011;5668;52.012;8.724;2023-08-06T09:22:52;3.53;;;2.95;;
11222;SDS011;5668;52.012;8.724;2023-08-06T09:25:20;2.60;;;2.40;;
11222;SDS011;5668;52.012;8.724;2023-08-06T09:27:49;2.55;;;2.33;;
11222;SDS011;5668;52.012;8.724;2023-08-06T09:30:28;3.28;;;2.70;;
11222;SDS011;5668;52.012;8.724;2023-08-06T09:32:57;2.80;;;2.60;;
11222;SDS011;5668;52.012;8.724;2023-08-06T09:35:27;2.40;;;2.20;;
11222;SDS011;5668;52.012;8.724;2023-08-06T09:37:55;2.60;;;2.40;;
11222;SDS011;5668;52.012;8.724;2023-08-06T09:40:32;2.35;;;2.15;;
11222;SDS011;5668;52.012;8.724;2023-08-06T09:42:59;2.28;;;2.05;;
11222;SDS011;5668;52.012;8.724;2023-08-06T09:45:28;2.33;;;2.13;;
11222;SDS011;5668;52.012;8.724;2023-08-06T09:47:57;2.20;;;1.90;;
11222;SDS011;5668;52.012;8.724;2023-08-06T09:50:29;1.98;;;1.88;;
11222;SDS011;5668;52.012;8.724;2023-08-06T09:52:57;2.25;;;1.73;;
11222;SDS011;5668;52.012;8.724;2023-08-06T09:55:25;1.45;;;1.35;;
11222;SDS011;5668;52.012;8.724;2023-08-06T09:57:53;1.90;;;1.80;;
11222;SDS011;5668;52.012;8.724;2023-08-06T10:00:21;2.20;;;1.65;;
11222;SDS011;5668;52.012;8.724;2023-08-06T10:02:49;3.17;;;1.70;;
11222;SDS011;5668;52.012;8.724;2023-08-06T10:05:19;1.65;;;1.50;;
11222;SDS011;5668;52.012;8.724;2023-08-06T10:07:49;1.80;;;1.70;;
11222;SDS011;5668;52.012;8.724;2023-08-06T10:10:21;1.90;;;1.80;;
11222;SDS011;5668;52.012;8.724;2023-08-06T10:12:49;2.65;;;1.90;;
11222;SDS011;5668;52.012;8.724;2023-08-06T10:15:19;1.70;;;1.60;;
11222;SDS011;5668;52.012;8.724;2023-08-06T10:17:51;2.00;;;1.65;;
11222;SDS011;5668;52.012;8.724;2023-08-06T10:20:22;2.72;;;2.00;;
11222;SDS011;5668;52.012;8.724;2023-08-06T10:23:00;1.90;;;1.80;;
11222;SDS011;5668;52.012;8.724;2023-08-06T10:25:30;1.88;;;1.60;;
11222;SDS011;5668;52.012;8.724;2023-08-06T10:27:59;1.83;;;1.70;;
11222;SDS011;5668;52.012;8.724;2023-08-06T10:30:27;1.67;;;1.58;;
11222;SDS011;5668;52.012;8.724;2023-08-06T10:32:57;1.95;;;1.67;;
11222;SDS011;5668;52.012;8.724;2023-08-06T10:35:29;1.45;;;1.35;;
11222;SDS011;5668;52.012;8.724;2023-08-06T10:37:58;2.08;;;1.50;;
11222;SDS011;5668;52.012;8.724;2023-08-06T10:40:29;1.80;;;1.50;;
11222;SDS011;5668;52.012;8.724;2023-08-06T10:42:58;1.83;;;1.40;;
11222;SDS011;5668;52.012;8.724;2023-08-06T10:45:26;2.65;;;1.63;;
11222;SDS011;5668;52.012;8.724;2023-08-06T10:47:55;1.98;;;1.55;;
11222;SDS011;5668;52.012;8.724;2023-08-06T10:50:23;1.60;;;1.50;;
11222;SDS011;5668;52.012;8.724;2023-08-06T10:52:51;1.23;;;1.13;;
11222;SDS011;5668;52.012;8.724;2023-08-06T10:55:24;2.00;;;1.60;;
11222;SDS011;5668;52.012;8.724;2023-08-06T10:57:52;1.70;;;1.60;;
11222;SDS011;5668;52.012;8.724;2023-08-06T11:00:20;3.25;;;1.73;;
11222;SDS011;5668;52.012;8.724;2023-08-06T11:02:48;1.98;;;1.70;;
11222;SDS011;5668;52.012;8.724;2023-08-06T11:05:17;1.70;;;1.60;;
11222;SDS011;5668;52.012;8.724;2023-08-06T11:07:44;3.00;;;1.50;;
11222;SDS011;5668;52.012;8.724;2023-08-06T11:10:13;2.25;;;1.42;;
11222;SDS011;5668;52.012;8.724;2023-08-06T11:12:42;1.92;;;1.58;;
11222;SDS011;5668;52.012;8.724;2023-08-06T11:15:10;2.55;;;1.45;;
11222;SDS011;5668;52.012;8.724;2023-08-06T11:17:37;2.30;;;1.52;;
11222;SDS011;5668;52.012;8.724;2023-08-06T11:20:07;1.63;;;1.52;;
11222;SDS011;5668;52.012;8.724;2023-08-06T11:22:36;1.80;;;1.60;;
11222;SDS011;5668;52.012;8.724;2023-08-06T11:25:05;1.70;;;1.60;;
11222;SDS011;5668;52.012;8.724;2023-08-06T11:27:33;1.70;;;1.60;;
11222;SDS011;5668;52.012;8.724;2023-08-06T11:30:01;1.95;;;1.77;;
11222;SDS011;5668;52.012;8.724;2023-08-06T11:32:29;1.73;;;1.63;;
11222;SDS011;5668;52.012;8.724;2023-08-06T11:34:58;1.50;;;1.40;;
11222;SDS011;5668;52.012;8.724;2023-08-06T11:37:35;3.67;;;1.83;;
11222;SDS011;5668;52.012;8.724;2023-08-06T11:40:06;3.00;;;1.80;;
11222;SDS011;5668;52.012;8.724;2023-08-06T11:42:37;2.28;;;1.60;;
11222;SDS011;5668;52.012;8.724;2023-08-06T11:45:06;1.63;;;1.52;;
11222;SDS011;5668;52.012;8.724;2023-08-06T11:47:37;1.50;;;1.30;;
11222;SDS011;5668;52.012;8.724;2023-08-06T11:50:06;1.63;;;1.38;;
11222;SDS011;5668;52.012;8.724;2023-08-06T11:52:35;2.80;;;1.48;;
11222;SDS011;5668;52.012;8.724;2023-08-06T11:55:07;1.75;;;1.50;;
11222;SDS011;5668;52.012;8.724;2023-08-06T11:57:36;2.10;;;1.60;;
11222;SDS011;5668;52.012;8.724;2023-08-06T12:00:07;1.60;;;1.50;;
11222;SDS011;5668;52.012;8.724;2023-08-06T12:02:35;2.03;;;1.83;;
11222;SDS011;5668;52.012;8.724;2023-08-06T12:05:09;1.90;;;1.70;;
11222;SDS011;5668;52.012;8.724;2023-08-06T12:07:38;2.45;;;1.58;;
11222;SDS011;5668;52.012;8.724;2023-08-06T12:10:08;1.60;;;1.50;;
11222;SDS011;5668;52.012;8.724;2023-08-06T12:12:36;2.40;;;1.40;;
11222;SDS011;5668;52.012;8.724;2023-08-06T12:15:06;2.33;;;1.40;;
11222;SDS011;5668;52.012;8.724;2023-08-06T12:17:34;1.70;;;1.60;;
11222;SDS011;5668;52.012;8.724;2023-08-06T12:20:02;1.58;;;1.48;;
11222;SDS011;5668;52.012;8.724;2023-08-06T12:22:31;2.22;;;1.50;;
11222;SDS011;5668;52.012;8.724;2023-08-06T12:25:00;2.00;;;1.80;;
11222;SDS011;5668;52.012;8.724;2023-08-06T12:27:28;2.30;;;1.77;;
11222;SDS011;5668;52.012;8.724;2023-08-06T12:29:55;2.95;;;1.70;;
11222;SDS011;5668;52.012;8.724;2023-08-06T12:32:24;2.13;;;1.70;;
11222;SDS011;5668;52.012;8.724;2023-08-06T12:34:52;1.80;;;1.70;;
11222;SDS011;5668;52.012;8.724;2023-08-06T12:37:19;1.95;;;1.75;;
11222;SDS011;5668;52.012;8.724;2023-08-06T12:39:46;1.65;;;1.55;;
11222;SDS011;5668;52.012;8.724;2023-08-06T12:42:13;2.67;;;1.70;;
11222;SDS011;5668;52.012;8.724;2023-08-06T12:44:40;2.03;;;1.70;;
11222;SDS011;5668;52.012;8.724;2023-08-06T12:47:08;2.38;;;1.80;;
11222;SDS011;5668;52.012;8.724;2023-08-06T12:49:37;1.75;;;1.50;;
11222;SDS011;5668;52.012;8.724;2023-08-06T12:52:04;1.60;;;1.50;;
11222;SDS011;5668;52.012;8.724;2023-08-06T12:54:34;1.60;;;1.50;;
11222;SDS011;5668;52.012;8.724;2023-08-06T12:57:02;1.77;;;1.67;;
11222;SDS011;5668;52.012;8.724;2023-08-06T12:59:29;1.70;;;1.60;;
11222;SDS011;5668;52.012;8.724;2023-08-06T13:01:58;1.85;;;1.73;;
11222;SDS011;5668;52.012;8.724;2023-08-06T13:04:25;1.67;;;1.45;;
11222;SDS011;5668;52.012;8.724;2023-08-06T13:06:54;1.40;;;1.30;;
11222;SDS011;5668;52.012;8.724;2023-08-06T13:09:21;1.80;;;1.70;;
11222;SDS011;5668;52.012;8.724;2023-08-06T13:11:48;1.63;;;1.50;;
11222;SDS011;5668;52.012;8.724;2023-08-06T13:14:16;1.65;;;1.45;;
11222;SDS011;5668;52.012;8.724;2023-08-06T13:16:43;1.92;;;1.50;;
11222;SDS011;5668;52.012;8.724;2023-08-06T13:19:10;2.03;;;1.63;;
11222;SDS011;5668;52.012;8.724;2023-08-06T13:21:57;2.75;;;1.50;;
11222;SDS011;5668;52.012;8.724;2023-08-06T13:24:28;2.70;;;1.77;;
11222;SDS011;5668;52.012;8.724;2023-08-06T13:26:56;1.85;;;1.50;;
11222;SDS011;5668;52.012;8.724;2023-08-06T13:29:24;1.67;;;1.58;;
11222;SDS011;5668;52.012;8.724;2023-08-06T13:31:53;2.00;;;1.80;;
11222;SDS011;5668;52.012;8.724;2023-08-06T13:34:20;2.10;;;1.50;;
11222;SDS011;5668;52.012;8.724;2023-08-06T13:36:47;2.42;;;1.88;;
11222;SDS011;5668;52.012;8.724;2023-08-06T13:39:17;2.47;;;1.92;;
11222;SDS011;5668;52.012;8.724;2023-08-06T13:41:44;1.88;;;1.67;;
11222;SDS011;5668;52.012;8.724;2023-08-06T13:44:12;2.53;;;1.73;;
11222;SDS011;5668;52.012;8.724;2023-08-06T13:46:40;1.65;;;1.55;;
11222;SDS011;5668;52.012;8.724;2023-08-06T13:49:08;2.22;;;1.90;;
11222;SDS011;5668;52.012;8.724;2023-08-06T13:51:35;2.75;;;1.73;;
11222;SDS011;5668;52.012;8.724;2023-08-06T13:54:03;2.78;;;1.60;;
11222;SDS011;5668;52.012;8.724;2023-08-06T13:56:34;1.60;;;1.50;;
11222;SDS011;5668;52.012;8.724;2023-08-06T13:59:02;2.03;;;1.73;;
11222;SDS011;5668;52.012;8.724;2023-08-06T14:01:30;1.73;;;1.63;;
11222;SDS011;5668;52.012;8.724;2023-08-06T14:03:57;3.15;;;1.45;;
11222;SDS011;5668;52.012;8.724;2023-08-06T14:06:25;2.28;;;1.80;;
11222;SDS011;5668;52.012;8.724;2023-08-06T14:08:52;1.60;;;1.50;;
11222;SDS011;5668;52.012;8.724;2023-08-06T14:11:19;1.58;;;1.48;;
11222;SDS011;5668;52.012;8.724;2023-08-06T14:13:48;1.50;;;1.40;;
11222;SDS011;5668;52.012;8.724;2023-08-06T14:16:15;1.55;;;1.45;;
11222;SDS011;5668;52.012;8.724;2023-08-06T14:18:42;2.75;;;1.88;;
11222;SDS011;5668;52.012;8.724;2023-08-06T14:21:10;2.08;;;1.70;;
11222;SDS011;5668;52.012;8.724;2023-08-06T14:23:37;2.03;;;1.63;;
11222;SDS011;5668;52.012;8.724;2023-08-06T14:26:06;1.95;;;1.55;;
11222;SDS011;5668;52.012;8.724;2023-08-06T14:28:35;1.88;;;1.65;;
11222;SDS011;5668;52.012;8.724;2023-08-06T14:31:04;1.90;;;1.70;;
11222;SDS011;5668;52.012;8.724;2023-08-06T14:33:31;1.63;;;1.52;;
11222;SDS011;5668;52.012;8.724;2023-08-06T14:35:59;1.77;;;1.50;;
11222;SDS011;5668;52.012;8.724;2023-08-06T14:38:26;5.07;;;1.77;;
11222;SDS011;5668;52.012;8.724;2023-08-06T14:40:54;3.70;;;1.77;;
11222;SDS011;5668;52.012;8.724;2023-08-06T14:43:21;4.68;;;1.95;;
11222;SDS011;5668;52.012;8.724;2023-08-06T14:45:48;3.00;;;1.67;;
11222;SDS011;5668;52.012;8.724;2023-08-06T14:48:17;2.60;;;1.80;;
11222;SDS011;5668;52.012;8.724;2023-08-06T14:50:44;3.87;;;2.20;;
11222;SDS011;5668;52.012;8.724;2023-08-06T14:53:11;3.58;;;1.80;;
11222;SDS011;5668;52.012;8.724;2023-08-06T14:55:38;2.13;;;1.63;;
11222;SDS011;5668;52.012;8.724;2023-08-06T14:58:06;3.95;;;1.50;;
11222;SDS011;5668;52.012;8.724;2023-08-06T15:00:34;1.75;;;1.65;;
11222;SDS011;5668;52.012;8.724;2023-08-06T15:03:01;2.33;;;1.60;;
11222;SDS011;5668;52.012;8.724;2023-08-06T15:05:29;2.13;;;1.73;;
11222;SDS011;5668;52.012;8.724;2023-08-06T15:07:57;2.10;;;1.80;;